createdAt,value
2018-11-02T00:00:40.075Z,8.19
2018-11-02T00:03:09.544Z,8.46
2018-11-02T00:05:38.007Z,8.34
2018-11-02T00:08:07.959Z,8.53
2018-11-02T00:10:37.002Z,8.42
2018-11-02T00:13:05.485Z,8.52
2018-11-02T00:15:33.973Z,8.48
2018-11-02T00:18:02.370Z,8.44
2018-11-02T00:20:30.583Z,8.36
2018-11-02T00:22:58.697Z,8.42
2018-11-02T00:25:26.937Z,8.38
2018-11-02T00:27:55.139Z,8.35
2018-11-02T00:30:24.249Z,8.35
2018-11-02T00:32:52.383Z,8.45
2018-11-02T00:35:20.537Z,8.53
2018-11-02T00:37:48.705Z,8.70
2018-11-02T00:40:17.525Z,8.85
2018-11-02T00:42:45.641Z,8.90
2018-11-02T00:45:14.486Z,8.94
2018-11-02T00:47:42.691Z,9.01
2018-11-02T00:50:11.682Z,9.06
2018-11-02T00:52:40.026Z,9.11
2018-11-02T00:55:08.636Z,9.07
2018-11-02T00:57:36.892Z,9.18
2018-11-02T01:00:08.701Z,9.24
2018-11-02T01:02:36.957Z,9.07
2018-11-02T01:05:05.629Z,8.99
2018-11-02T01:07:34.278Z,9.10
2018-11-02T01:10:02.544Z,9.16
2018-11-02T01:12:31.650Z,9.12
2018-11-02T01:14:59.814Z,9.05
2018-11-02T01:17:27.913Z,9.14
2018-11-02T01:19:56.078Z,9.08
2018-11-02T01:22:24.322Z,9.02
2018-11-02T01:24:52.452Z,9.05
2018-11-02T01:27:20.540Z,8.98
2018-11-02T01:29:48.692Z,8.91
2018-11-02T01:32:17.198Z,9.09
2018-11-02T01:34:45.316Z,9.07
2018-11-02T01:37:13.466Z,8.88
2018-11-02T01:39:41.598Z,8.95
2018-11-02T01:42:10.369Z,9.03
2018-11-02T01:44:38.637Z,9.15
2018-11-02T01:47:08.124Z,9.13
2018-11-02T01:49:36.278Z,9.09
2018-11-02T01:52:04.767Z,9.21
2018-11-02T01:54:33.846Z,9.17
2018-11-02T01:57:02.202Z,9.12
2018-11-02T01:59:31.432Z,9.06
2018-11-02T02:01:59.618Z,9.04
2018-11-02T02:04:27.741Z,9.09
2018-11-02T02:06:55.921Z,9.10
2018-11-02T02:09:24.113Z,8.95
2018-11-02T02:11:53.835Z,8.95
2018-11-02T02:14:22.065Z,8.97
2018-11-02T02:16:50.231Z,8.96
2018-11-02T02:19:18.333Z,8.95
2018-11-02T02:21:46.493Z,8.96
2018-11-02T02:24:14.599Z,9.04
2018-11-02T02:26:42.735Z,8.99
2018-11-02T02:29:10.868Z,8.95
2018-11-02T02:31:39.021Z,9.05
2018-11-02T02:34:07.142Z,9.04
2018-11-02T02:36:35.895Z,9.05
2018-11-02T02:39:05.913Z,9.01
2018-11-02T02:41:34.695Z,8.99
2018-11-02T02:44:04.161Z,8.96
2018-11-02T02:46:32.368Z,8.99
2018-11-02T02:49:00.539Z,8.93
2018-11-02T02:51:28.706Z,9.03
2018-11-02T02:53:58.084Z,8.91
2018-11-02T02:56:26.291Z,8.88
2018-11-02T02:58:54.618Z,8.94
2018-11-02T03:01:23.297Z,8.88
2018-11-02T03:03:51.435Z,8.89
2018-11-02T03:06:19.845Z,8.95
2018-11-02T03:08:48.858Z,8.77
2018-11-02T03:11:17.735Z,8.77
2018-11-02T03:13:45.879Z,8.79
2018-11-02T03:16:14.006Z,8.75
2018-11-02T03:18:42.244Z,8.57
2018-11-02T03:21:10.528Z,8.63
2018-11-02T03:23:39.206Z,8.57
2018-11-02T03:26:07.345Z,8.63
2018-11-02T03:28:36.502Z,8.76
2018-11-02T03:31:05.944Z,8.76
2018-11-02T03:33:35.447Z,8.83
2018-11-02T03:36:03.683Z,8.93
2018-11-02T03:38:32.856Z,8.84
2018-11-02T03:41:01.488Z,8.91
2018-11-02T03:43:29.660Z,8.92
2018-11-02T03:45:57.782Z,8.82
2018-11-02T03:48:25.971Z,8.86
2018-11-02T03:50:54.950Z,8.70
2018-11-02T03:53:23.169Z,8.83
2018-11-02T03:55:51.364Z,8.75
2018-11-02T03:58:19.625Z,8.64
2018-11-02T04:00:47.802Z,8.61
2018-11-02T04:03:15.974Z,8.71
2018-11-02T04:05:44.106Z,8.66
2018-11-02T04:08:12.256Z,8.53
2018-11-02T04:10:40.410Z,8.54
2018-11-02T04:13:08.538Z,8.45
2018-11-02T04:15:36.742Z,8.51
2018-11-02T04:18:05.518Z,8.53
2018-11-02T04:20:34.303Z,8.46
2018-11-02T04:23:02.474Z,8.46
2018-11-02T04:25:30.645Z,8.50
2018-11-02T04:27:58.858Z,8.54
2018-11-02T04:30:27.823Z,8.59
2018-11-02T04:32:56.516Z,8.59
2018-11-02T04:35:24.666Z,8.78
2018-11-02T04:37:52.811Z,8.69
2018-11-02T04:40:21.012Z,8.66
2018-11-02T04:42:49.760Z,8.54
2018-11-02T04:45:22.466Z,8.45
2018-11-02T04:47:50.657Z,8.50
2018-11-02T04:50:18.789Z,8.47
2018-11-02T04:52:46.967Z,8.41
2018-11-02T04:55:15.103Z,8.31
2018-11-02T04:57:43.274Z,8.30
2018-11-02T05:00:11.489Z,8.30
2018-11-02T05:02:39.724Z,8.28
2018-11-02T05:05:08.430Z,8.32
2018-11-02T05:07:36.630Z,8.30
2018-11-02T05:10:06.211Z,8.37
2018-11-02T05:12:35.371Z,8.31
2018-11-02T05:15:04.206Z,8.30
2018-11-02T05:17:32.462Z,8.42
2018-11-02T05:20:00.632Z,8.48
2018-11-02T05:22:29.546Z,8.38
2018-11-02T05:24:57.901Z,8.28
2018-11-02T05:27:26.628Z,8.41
2018-11-02T05:29:54.810Z,8.42
2018-11-02T05:32:23.704Z,8.24
2018-11-02T05:34:52.364Z,8.13
2018-11-02T05:37:20.559Z,8.16
2018-11-02T05:39:48.800Z,8.16
2018-11-02T05:42:17.038Z,8.28
2018-11-02T05:44:45.228Z,8.26
2018-11-02T05:47:13.745Z,8.17
2018-11-02T05:49:41.837Z,8.18
2018-11-02T05:52:10.127Z,8.21
2018-11-02T05:54:38.610Z,8.30
2018-11-02T05:57:07.084Z,8.37
2018-11-02T05:59:35.930Z,8.28
2018-11-02T06:02:04.204Z,8.30
2018-11-02T06:04:32.386Z,8.31
2018-11-02T06:07:00.549Z,8.42
2018-11-02T06:09:28.688Z,8.42
2018-11-02T06:11:56.826Z,8.52
2018-11-02T06:14:25.023Z,8.52
2018-11-02T06:16:53.273Z,8.64
2018-11-02T06:19:21.650Z,8.72
2018-11-02T06:21:49.885Z,8.69
2018-11-02T06:24:18.161Z,8.59
2018-11-02T06:26:46.264Z,8.68
2018-11-02T06:29:15.062Z,8.70
2018-11-02T06:31:43.321Z,8.78
2018-11-02T06:34:11.468Z,8.96
2018-11-02T06:36:39.590Z,9.04
2018-11-02T06:39:09.016Z,9.08
2018-11-02T06:41:37.266Z,9.03
2018-11-02T06:44:05.473Z,9.09
2018-11-02T06:46:33.620Z,9.07
2018-11-02T06:49:01.937Z,9.14
2018-11-02T06:51:30.611Z,9.03
2018-11-02T06:53:58.779Z,8.99
2018-11-02T06:56:26.916Z,9.04
2018-11-02T06:58:55.076Z,9.11
2018-11-02T07:01:23.269Z,9.19
2018-11-02T07:03:51.442Z,9.11
2018-11-02T07:06:19.635Z,9.03
2018-11-02T07:08:47.842Z,8.98
2018-11-02T07:11:16.027Z,8.87
2018-11-02T07:13:44.188Z,8.97
2018-11-02T07:16:12.328Z,9.23
2018-11-02T07:18:40.488Z,9.17
2018-11-02T07:21:08.636Z,9.23
2018-11-02T07:23:36.836Z,9.25
2018-11-02T07:26:05.013Z,9.31
2018-11-02T07:28:33.152Z,9.36
2018-11-02T07:31:01.340Z,9.53
2018-11-02T07:33:29.515Z,9.55
2018-11-02T07:35:57.707Z,9.69
2018-11-02T07:38:25.881Z,9.82
2018-11-02T07:40:54.082Z,9.91
2018-11-02T07:43:22.226Z,10.18
2018-11-02T07:45:50.442Z,10.50
2018-11-02T07:48:18.579Z,10.76
2018-11-02T07:50:46.738Z,10.89
2018-11-02T07:53:14.973Z,11.01
2018-11-02T07:55:43.156Z,11.27
2018-11-02T07:58:11.326Z,11.36
2018-11-02T08:00:39.511Z,11.57
2018-11-02T08:03:07.763Z,11.98
2018-11-02T08:05:35.988Z,12.08
2018-11-02T08:08:04.238Z,11.68
2018-11-02T08:10:32.447Z,11.81
2018-11-02T08:13:00.609Z,12.10
2018-11-02T08:15:28.806Z,12.18
2018-11-02T08:17:57.039Z,12.36
2018-11-02T08:20:25.199Z,12.21
2018-11-02T08:22:53.376Z,12.19
2018-11-02T08:25:21.548Z,12.50
2018-11-02T08:27:49.743Z,12.73
2018-11-02T08:30:17.887Z,12.89
2018-11-02T08:32:46.060Z,13.01
2018-11-02T08:35:14.221Z,12.89
2018-11-02T08:37:42.514Z,13.38
2018-11-02T08:40:11.981Z,13.46
2018-11-02T08:42:40.315Z,13.41
2018-11-02T08:45:09.291Z,13.46
2018-11-02T08:47:37.474Z,13.56
2018-11-02T08:50:07.743Z,13.65
2018-11-02T08:52:35.835Z,14.06
2018-11-02T08:55:04.162Z,14.44
2018-11-02T08:57:32.341Z,15.85
2018-11-02T09:00:00.583Z,17.16
2018-11-02T09:02:28.690Z,17.50
2018-11-02T09:04:56.841Z,17.11
2018-11-02T09:07:25.054Z,16.98
2018-11-02T09:09:53.364Z,16.70
2018-11-02T09:12:21.533Z,15.52
2018-11-02T09:14:49.644Z,15.39
2018-11-02T09:17:17.833Z,15.10
2018-11-02T09:19:46.009Z,14.85
2018-11-02T09:22:14.245Z,14.81
2018-11-02T09:24:42.367Z,14.50
2018-11-02T09:27:10.508Z,14.24
2018-11-02T09:29:38.608Z,14.70
2018-11-02T09:32:06.867Z,14.42
2018-11-02T09:34:35.030Z,14.91
2018-11-02T09:37:03.281Z,15.06
2018-11-02T09:39:31.700Z,15.24
2018-11-02T09:41:59.902Z,15.32
2018-11-02T09:44:28.053Z,15.38
2018-11-02T09:46:56.319Z,15.42
2018-11-02T09:49:24.446Z,15.27
2018-11-02T09:51:52.732Z,14.62
2018-11-02T09:54:20.856Z,14.56
2018-11-02T09:56:49.714Z,14.60
2018-11-02T09:59:17.886Z,15.11
2018-11-02T10:01:46.079Z,15.83
2018-11-02T10:04:14.338Z,16.24
2018-11-02T10:06:42.569Z,16.93
2018-11-02T10:09:12.154Z,18.56
2018-11-02T10:11:41.347Z,19.17
2018-11-02T10:14:10.397Z,18.93
2018-11-02T10:16:38.733Z,19.63
2018-11-02T10:19:07.339Z,18.90
2018-11-02T10:21:35.572Z,18.09
2018-11-02T10:24:04.391Z,17.12
2018-11-02T10:26:33.352Z,16.82
2018-11-02T10:29:02.397Z,16.88
2018-11-02T10:31:30.695Z,16.69
2018-11-02T10:33:59.134Z,16.98
2018-11-02T10:36:27.523Z,17.58
2018-11-02T10:38:56.382Z,18.53
2018-11-02T10:41:29.774Z,18.14
2018-11-02T10:43:58.424Z,17.68
2018-11-02T10:46:27.009Z,17.09
2018-11-02T10:48:55.221Z,16.88
2018-11-02T10:51:23.505Z,16.34
2018-11-02T10:53:51.687Z,15.90
2018-11-02T10:56:19.880Z,16.31
2018-11-02T10:58:48.092Z,16.96
2018-11-02T11:01:22.515Z,17.57
2018-11-02T11:03:50.711Z,19.09
2018-11-02T11:06:18.881Z,19.74
2018-11-02T11:08:47.621Z,20.46
2018-11-02T11:11:15.805Z,20.85
2018-11-02T11:13:44.367Z,21.31
2018-11-02T11:16:13.269Z,21.06
2018-11-02T11:18:41.465Z,20.82
2018-11-02T11:21:09.727Z,20.29
2018-11-02T11:23:37.839Z,20.53
2018-11-02T11:26:06.600Z,21.17
2018-11-02T11:28:34.805Z,21.96
2018-11-02T11:31:03.061Z,22.46
2018-11-02T11:33:31.219Z,25.42
2018-11-02T11:35:59.389Z,27.70
2018-11-02T11:38:27.513Z,30.19
2018-11-02T11:40:55.764Z,31.95
2018-11-02T11:43:23.905Z,33.18
2018-11-02T11:45:52.117Z,33.34
2018-11-02T11:48:20.310Z,33.23
2018-11-02T11:50:48.498Z,33.91
2018-11-02T11:53:16.690Z,30.53
2018-11-02T11:55:44.904Z,26.26
2018-11-02T11:58:13.088Z,23.32
2018-11-02T12:00:41.286Z,22.02
2018-11-02T12:03:09.462Z,20.94
2018-11-02T12:05:37.674Z,19.46
2018-11-02T12:08:05.894Z,18.51
2018-11-02T12:10:34.156Z,17.89
2018-11-02T12:13:02.237Z,16.88
2018-11-02T12:15:30.426Z,16.79
2018-11-02T12:17:58.598Z,16.69
2018-11-02T12:20:28.612Z,16.53
2018-11-02T12:22:58.996Z,16.12
2018-11-02T12:25:27.504Z,16.05
2018-11-02T12:27:55.735Z,15.75
2018-11-02T12:30:23.998Z,15.94
2018-11-02T12:32:52.099Z,15.82
2018-11-02T12:35:20.564Z,15.55
2018-11-02T12:37:48.736Z,15.55
2018-11-02T12:40:18.093Z,15.12
2018-11-02T12:42:47.346Z,14.94
2018-11-02T12:45:16.540Z,15.01
2018-11-02T12:47:45.148Z,15.11
2018-11-02T12:50:18.107Z,15.19
2018-11-02T12:52:47.171Z,15.39
2018-11-02T12:55:15.938Z,15.37
2018-11-02T12:57:44.315Z,15.43
2018-11-02T13:00:29.912Z,15.40
2018-11-02T13:02:58.157Z,15.69
2018-11-02T13:05:26.355Z,15.67
2018-11-02T13:07:54.583Z,16.26
2018-11-02T13:10:23.066Z,16.54
2018-11-02T13:12:51.267Z,16.42
2018-11-02T13:15:20.853Z,16.54
2018-11-02T13:17:49.490Z,16.52
2018-11-02T13:20:17.733Z,16.69
2018-11-02T13:22:46.825Z,17.15
2018-11-02T13:25:16.321Z,17.31
2018-11-02T13:27:45.052Z,17.61
2018-11-02T13:30:13.295Z,17.24
2018-11-02T13:32:41.396Z,17.18
2018-11-02T13:35:12.259Z,16.92
2018-11-02T13:37:41.122Z,16.57
2018-11-02T13:40:10.822Z,16.66
2018-11-02T13:42:40.093Z,17.22
2018-11-02T13:45:10.335Z,17.54
2018-11-02T13:47:38.843Z,17.80
2018-11-02T13:50:07.389Z,17.98
2018-11-02T13:52:35.505Z,18.03
2018-11-02T13:55:04.113Z,17.95
2018-11-02T13:57:32.268Z,18.07
2018-11-02T14:00:00.441Z,18.12
2018-11-02T14:02:28.622Z,18.16
2018-11-02T14:04:56.861Z,18.17
2018-11-02T14:07:24.974Z,18.02
2018-11-02T14:09:53.152Z,17.70
2018-11-02T14:12:21.307Z,17.51
2018-11-02T14:14:49.482Z,17.51
2018-11-02T14:17:17.669Z,17.42
2018-11-02T14:19:45.852Z,18.06
2018-11-02T14:22:14.026Z,19.35
2018-11-02T14:24:42.161Z,19.78
2018-11-02T14:27:10.357Z,19.71
2018-11-02T14:29:38.591Z,20.62
2018-11-02T14:32:06.595Z,22.42
2018-11-02T14:34:34.792Z,24.02
2018-11-02T14:37:02.940Z,24.53
2018-11-02T14:39:31.163Z,22.79
2018-11-02T14:41:59.353Z,22.00
2018-11-02T14:44:27.548Z,20.37
2018-11-02T14:46:55.697Z,19.29
2018-11-02T14:49:23.845Z,18.54
2018-11-02T14:51:52.147Z,17.94
2018-11-02T14:54:20.329Z,18.71
2018-11-02T14:56:48.459Z,19.11
2018-11-02T14:59:16.667Z,18.57
2018-11-02T15:01:44.879Z,17.72
2018-11-02T15:04:13.046Z,17.05
2018-11-02T15:06:42.007Z,16.48
2018-11-02T15:09:11.529Z,16.04
2018-11-02T15:11:39.717Z,15.67
2018-11-02T15:14:08.295Z,15.40
2018-11-02T15:16:36.473Z,15.22
2018-11-02T15:19:04.944Z,15.03
2018-11-02T15:21:33.100Z,14.91
2018-11-02T15:24:01.251Z,14.67
2018-11-02T15:26:29.440Z,14.54
2018-11-02T15:28:57.575Z,14.53
2018-11-02T15:31:25.743Z,14.40
2018-11-02T15:33:53.937Z,14.36
2018-11-02T15:36:22.107Z,14.41
2018-11-02T15:38:50.256Z,14.35
2018-11-02T15:41:18.441Z,14.31
2018-11-02T15:43:46.596Z,14.32
2018-11-02T15:46:14.788Z,14.25
2018-11-02T15:48:43.049Z,14.17
2018-11-02T15:51:11.214Z,14.05
2018-11-02T15:53:39.618Z,13.88
2018-11-02T15:56:07.806Z,13.69
2018-11-02T15:58:35.961Z,13.59
2018-11-02T16:01:04.358Z,13.68
2018-11-02T16:03:32.620Z,13.67
2018-11-02T16:06:00.808Z,13.65
2018-11-02T16:08:28.965Z,13.63
2018-11-02T16:10:57.428Z,13.67
2018-11-02T16:13:25.584Z,13.63
2018-11-02T16:15:53.763Z,13.61
2018-11-02T16:18:22.762Z,13.52
2018-11-02T16:20:50.920Z,13.48
2018-11-02T16:23:19.113Z,13.32
2018-11-02T16:25:47.345Z,13.40
2018-11-02T16:28:15.552Z,13.41
2018-11-02T16:30:43.684Z,13.44
2018-11-02T16:33:11.827Z,13.41
2018-11-02T16:35:39.963Z,13.38
2018-11-02T16:38:08.119Z,13.28
2018-11-02T16:40:36.311Z,13.25
2018-11-02T16:43:04.503Z,13.09
2018-11-02T16:45:32.691Z,12.96
2018-11-02T16:48:01.158Z,12.77
2018-11-02T16:50:29.317Z,12.72
2018-11-02T16:52:57.393Z,12.73
2018-11-02T16:55:25.645Z,12.80
2018-11-02T16:57:53.932Z,12.79
2018-11-02T17:00:21.954Z,12.80
2018-11-02T17:02:50.118Z,12.80
2018-11-02T17:05:18.502Z,12.80
2018-11-02T17:07:46.679Z,12.68
2018-11-02T17:10:15.272Z,12.46
2018-11-02T17:12:43.846Z,12.50
2018-11-02T17:15:12.738Z,12.53
2018-11-02T17:17:40.991Z,12.54
2018-11-02T17:20:12.178Z,12.53
2018-11-02T17:22:40.407Z,12.59
2018-11-02T17:25:09.525Z,12.57
2018-11-02T17:27:38.266Z,12.50
2018-11-02T17:30:09.159Z,12.43
2018-11-02T17:32:37.354Z,12.30
2018-11-02T17:35:06.062Z,12.28
2018-11-02T17:37:34.272Z,12.22
2018-11-02T17:40:02.410Z,12.15
2018-11-02T17:42:30.623Z,12.06
2018-11-02T17:44:58.844Z,12.02
2018-11-02T17:47:27.379Z,12.00
2018-11-02T17:49:55.548Z,11.91
2018-11-02T17:52:24.202Z,11.92
2018-11-02T17:54:52.397Z,11.87
2018-11-02T17:57:20.570Z,11.78
2018-11-02T17:59:48.742Z,11.72
2018-11-02T18:02:16.915Z,11.64
2018-11-02T18:04:45.028Z,11.61
2018-11-02T18:07:13.203Z,11.56
2018-11-02T18:09:41.397Z,11.52
2018-11-02T18:12:09.596Z,11.47
2018-11-02T18:14:37.839Z,11.45
2018-11-02T18:17:06.084Z,11.44
2018-11-02T18:19:34.254Z,11.46
2018-11-02T18:22:02.548Z,11.42
2018-11-02T18:24:30.895Z,11.49
2018-11-02T18:26:58.880Z,11.48
2018-11-02T18:29:27.107Z,11.43
2018-11-02T18:31:55.283Z,11.48
2018-11-02T18:34:23.417Z,11.52
2018-11-02T18:36:52.253Z,11.51
2018-11-02T18:39:20.455Z,11.53
2018-11-02T18:41:48.651Z,11.59
2018-11-02T18:44:16.921Z,11.60
2018-11-02T18:46:45.109Z,11.58
2018-11-02T18:49:13.278Z,11.61
2018-11-02T18:51:42.929Z,11.59
2018-11-02T18:54:11.154Z,11.63
2018-11-02T18:56:39.310Z,11.72
2018-11-02T18:59:08.557Z,11.72
2018-11-02T19:01:37.234Z,11.69
2018-11-02T19:04:06.274Z,11.72
2018-11-02T19:06:34.940Z,11.75
2018-11-02T19:09:04.703Z,11.74
2018-11-02T19:11:32.839Z,11.75
2018-11-02T19:14:01.001Z,11.71
2018-11-02T19:16:29.206Z,11.71
2018-11-02T19:18:57.386Z,11.69
2018-11-02T19:21:25.625Z,11.69
2018-11-02T19:23:53.725Z,11.69
2018-11-02T19:26:21.980Z,11.68
2018-11-02T19:28:50.161Z,11.69
2018-11-02T19:31:18.466Z,11.72
2018-11-02T19:33:46.672Z,11.71
2018-11-02T19:36:14.979Z,11.75
2018-11-02T19:38:43.343Z,11.80
2018-11-02T19:41:11.530Z,11.72
2018-11-02T19:43:40.499Z,11.70
2018-11-02T19:46:08.655Z,11.73
2018-11-02T19:48:36.930Z,11.70
2018-11-02T19:51:05.848Z,11.68
2018-11-02T19:53:35.192Z,11.62
2018-11-02T19:56:03.608Z,11.56
2018-11-02T19:58:31.993Z,11.58
2018-11-02T20:01:00.292Z,11.55
2018-11-02T20:03:28.673Z,11.57
2018-11-02T20:05:56.872Z,11.49
2018-11-02T20:08:25.076Z,11.45
2018-11-02T20:10:53.284Z,11.45
2018-11-02T20:13:21.536Z,11.39
2018-11-02T20:15:50.556Z,11.28
2018-11-02T20:18:18.798Z,11.34
2018-11-02T20:20:47.050Z,11.27
2018-11-02T20:23:15.211Z,11.23
2018-11-02T20:25:43.404Z,11.20
2018-11-02T20:28:11.624Z,11.18
2018-11-02T20:30:39.827Z,11.18
2018-11-02T20:33:08.063Z,11.13
2018-11-02T20:35:36.323Z,11.09
2018-11-02T20:38:04.643Z,11.06
2018-11-02T20:40:32.843Z,11.05
2018-11-02T20:43:01.021Z,10.97
2018-11-02T20:45:29.241Z,10.91
2018-11-02T20:47:57.438Z,10.61
2018-11-02T20:50:25.701Z,10.54
2018-11-02T20:52:53.990Z,10.63
2018-11-02T20:55:23.181Z,10.65
2018-11-02T20:57:51.481Z,10.64
2018-11-02T21:00:21.059Z,10.52
2018-11-02T21:02:49.241Z,10.48
2018-11-02T21:05:18.234Z,10.42
2018-11-02T21:07:47.063Z,10.30
2018-11-02T21:10:16.716Z,10.32
2018-11-02T21:12:45.248Z,10.38
2018-11-02T21:15:22.521Z,10.34
2018-11-02T21:17:51.263Z,10.40
2018-11-02T21:20:21.932Z,10.47
2018-11-02T21:22:50.289Z,10.49
2018-11-02T21:25:19.091Z,10.29
2018-11-02T21:27:48.976Z,10.28
2018-11-02T21:30:19.273Z,10.45
2018-11-02T21:32:48.211Z,10.51
2018-11-02T21:35:16.911Z,10.42
2018-11-02T21:37:46.111Z,10.55
2018-11-02T21:40:16.408Z,10.59
2018-11-02T21:42:44.557Z,10.59
2018-11-02T21:45:14.041Z,10.70
2018-11-02T21:47:42.369Z,10.55
2018-11-02T21:50:12.079Z,10.63
2018-11-02T21:52:40.253Z,10.60
2018-11-02T21:55:08.698Z,10.54
2018-11-02T21:57:37.015Z,10.59
2018-11-02T22:00:09.356Z,10.56
2018-11-02T22:02:37.577Z,10.45
2018-11-02T22:05:07.219Z,10.47
2018-11-02T22:07:35.413Z,10.55
2018-11-02T22:10:04.581Z,10.56
2018-11-02T22:12:32.781Z,10.52
2018-11-02T22:15:00.956Z,10.52
2018-11-02T22:17:29.152Z,10.57
2018-11-02T22:19:57.607Z,10.58
2018-11-02T22:22:25.814Z,10.42
2018-11-02T22:24:54.022Z,10.37
2018-11-02T22:27:22.218Z,10.37
2018-11-02T22:29:50.390Z,10.23
2018-11-02T22:32:18.570Z,10.19
2018-11-02T22:34:46.767Z,10.16
2018-11-02T22:37:14.995Z,10.18
2018-11-02T22:39:43.163Z,10.14
2018-11-02T22:42:11.321Z,10.15
2018-11-02T22:44:39.484Z,10.09
2018-11-02T22:47:07.603Z,10.10
2018-11-02T22:49:36.053Z,10.02
2018-11-02T22:52:04.329Z,10.03
2018-11-02T22:54:32.507Z,10.03
2018-11-02T22:57:00.641Z,10.04
2018-11-02T22:59:29.860Z,10.10
2018-11-02T23:01:58.051Z,10.07
2018-11-02T23:04:26.289Z,9.99
2018-11-02T23:06:54.518Z,9.93
2018-11-02T23:09:22.694Z,9.92
2018-11-02T23:11:50.814Z,9.88
2018-11-02T23:14:18.996Z,9.93
2018-11-02T23:16:47.174Z,9.94
2018-11-02T23:19:15.382Z,9.95
2018-11-02T23:21:43.513Z,9.96
2018-11-02T23:24:11.697Z,9.86
2018-11-02T23:26:39.822Z,9.83
2018-11-02T23:29:08.784Z,9.78
2018-11-02T23:31:37.392Z,9.80
2018-11-02T23:34:05.854Z,9.89
2018-11-02T23:36:34.187Z,9.86
2018-11-02T23:39:03.425Z,9.83
2018-11-02T23:41:31.623Z,9.84
2018-11-02T23:43:59.776Z,9.90
2018-11-02T23:46:27.970Z,9.91
2018-11-02T23:48:56.148Z,9.83
2018-11-02T23:51:24.301Z,9.76
2018-11-02T23:53:52.463Z,9.78
2018-11-02T23:56:20.631Z,9.82
2018-11-02T23:58:49.335Z,9.76
